Walford, IA

11:52 AM CDT on September 02, 2014 (GMT -0500)
The Eastern Iowa Airport | Change Station
CLOSE
Current Station
Airport
Location: Cedar Rapids,
Elevation: 866 ft
Nearby Weather Stations

Elev 866 ft 41.88 °N, 91.71 °W | Updated 1 hour ago

Clear
Clear
71 °F
Feels Like 71 °F
N
4
Wind Variable Wind from North

Today
High -- | Low -- °F
--% Chance of Precip.
Yesterday
High -- | Low -- °F
Precip. -- in
6:34 AM 7:39 PM
First Quarter, 53% visible
Pressure 29.93 in
Visibility 10.0 miles
Clouds Clear
Dew Point 59 °F
Humidity 66%
Rainfall 0.00 in
Snow Depth Not available.
UV 6 out of 12
Pollen 9.60 out of 12
Air Quality Not available.
Flu Activity Not available.
METAR KCID 021552Z 35003KT 10SM CLR 22/15 A2994 RMK AO2 SLP135 T02170150 $

More Conditions Fewer Conditions

Pressure 29.93 in
Visibility 10.0 miles
Clouds Clear
Dew Point 59 °F
Humidity 66%
Rainfall 0.00 in
Snow Depth Not available.
UV 6 out of 12
Pollen 9.60 out of 12
Air Quality Not available.
Flu Activity Not available.
METAR KCID 021552Z 35003KT 10SM CLR 22/15 A2994 RMK AO2 SLP135 T02170150 $

More Conditions Fewer Conditions

10-Day Weather Forecast

Almanac

Astronomy

Sep. 02, 2014 Rise Set
Actual Time 6:34 AM CDT 7:39 PM CDT
Civil Twilight 6:05 AM CDT 8:07 PM CDT
Nautical Twilight 5:31 AM CDT 8:41 PM CDT
Astronomical Twilight 4:55 AM CDT 9:17 PM CDT
Moon 2:25 PM CDT No Moon Set
Length of Visible Light 14h 02m
Length of Day
13h 05m
Tomorrow will be 2m 43s shorter.
First Quarter, 53% of the Moon is Illuminated
Today
First Quarter
Sep 8
Full
Sep 15
Last Quarter
Sep 24
New
Oct 1
First Quarter

Today's Extremes

State Highs State Lows

Community

WunderPhotos

Upload Photos

1,749,716 photos uploaded!

WunderBlogs® & News

Nearby

Snow Depth

Station Depth Elevation
No new snow has been reported.

Earthquake Activity

City Distance Mag. Time & Date
No recent earthquake activity has been reported nearby.
Minimum magnitude displayed is 2.5.

Coastal Water Temperatures

Place Temperature
No Stations Reporting

Nearby Weather Stations